sensor_id;sensor_type;location;lat;lon;timestamp;P1;durP1;ratioP1;P2;durP2;ratioP2
11771;SDS011;12556;55.748;13.194;2022-11-12T00:01:56;17.13;;;6.20;;
11771;SDS011;12556;55.748;13.194;2022-11-12T00:04:24;16.50;;;7.10;;
11771;SDS011;12556;55.748;13.194;2022-11-12T00:06:51;18.10;;;7.40;;
11771;SDS011;12556;55.748;13.194;2022-11-12T00:09:18;15.43;;;6.80;;
11771;SDS011;12556;55.748;13.194;2022-11-12T00:11:46;17.73;;;8.03;;
11771;SDS011;12556;55.748;13.194;2022-11-12T00:14:13;17.27;;;7.53;;
11771;SDS011;12556;55.748;13.194;2022-11-12T00:16:40;14.20;;;7.70;;
11771;SDS011;12556;55.748;13.194;2022-11-12T00:19:08;16.87;;;7.73;;
11771;SDS011;12556;55.748;13.194;2022-11-12T00:21:35;16.53;;;8.27;;
11771;SDS011;12556;55.748;13.194;2022-11-12T00:24:02;15.47;;;8.63;;
11771;SDS011;12556;55.748;13.194;2022-11-12T00:26:29;17.60;;;8.20;;
11771;SDS011;12556;55.748;13.194;2022-11-12T00:28:57;16.23;;;7.47;;
11771;SDS011;12556;55.748;13.194;2022-11-12T00:31:24;11.73;;;6.73;;
11771;SDS011;12556;55.748;13.194;2022-11-12T00:33:51;14.77;;;7.33;;
11771;SDS011;12556;55.748;13.194;2022-11-12T00:36:19;16.30;;;7.40;;
11771;SDS011;12556;55.748;13.194;2022-11-12T00:38:46;19.77;;;8.07;;
11771;SDS011;12556;55.748;13.194;2022-11-12T00:41:13;15.10;;;7.37;;
11771;SDS011;12556;55.748;13.194;2022-11-12T00:43:40;16.63;;;7.40;;
11771;SDS011;12556;55.748;13.194;2022-11-12T00:46:08;16.90;;;7.30;;
11771;SDS011;12556;55.748;13.194;2022-11-12T00:48:45;18.00;;;7.10;;
11771;SDS011;12556;55.748;13.194;2022-11-12T00:51:12;19.40;;;8.10;;
11771;SDS011;12556;55.748;13.194;2022-11-12T00:53:39;17.33;;;7.50;;
11771;SDS011;12556;55.748;13.194;2022-11-12T00:56:06;16.93;;;7.33;;
11771;SDS011;12556;55.748;13.194;2022-11-12T00:58:34;17.47;;;6.67;;
11771;SDS011;12556;55.748;13.194;2022-11-12T01:01:05;13.30;;;7.37;;
11771;SDS011;12556;55.748;13.194;2022-11-12T01:03:33;19.13;;;7.47;;
11771;SDS011;12556;55.748;13.194;2022-11-12T01:06:03;16.23;;;7.23;;
11771;SDS011;12556;55.748;13.194;2022-11-12T01:08:31;17.23;;;8.53;;
11771;SDS011;12556;55.748;13.194;2022-11-12T01:11:03;15.43;;;7.30;;
11771;SDS011;12556;55.748;13.194;2022-11-12T01:13:31;17.47;;;7.30;;
11771;SDS011;12556;55.748;13.194;2022-11-12T01:15:57;18.23;;;7.47;;
11771;SDS011;12556;55.748;13.194;2022-11-12T01:18:24;20.10;;;7.40;;
11771;SDS011;12556;55.748;13.194;2022-11-12T01:20:51;16.33;;;8.23;;
11771;SDS011;12556;55.748;13.194;2022-11-12T01:23:20;19.03;;;7.40;;
11771;SDS011;12556;55.748;13.194;2022-11-12T01:25:47;16.13;;;7.93;;
11771;SDS011;12556;55.748;13.194;2022-11-12T01:28:14;20.27;;;7.90;;
11771;SDS011;12556;55.748;13.194;2022-11-12T01:30:41;17.43;;;8.03;;
11771;SDS011;12556;55.748;13.194;2022-11-12T01:33:08;20.20;;;7.87;;
11771;SDS011;12556;55.748;13.194;2022-11-12T01:35:35;15.63;;;7.17;;
11771;SDS011;12556;55.748;13.194;2022-11-12T01:38:01;18.87;;;6.97;;
11771;SDS011;12556;55.748;13.194;2022-11-12T01:40:30;19.10;;;7.73;;
11771;SDS011;12556;55.748;13.194;2022-11-12T01:42:57;21.73;;;8.33;;
11771;SDS011;12556;55.748;13.194;2022-11-12T01:45:24;25.43;;;8.53;;
11771;SDS011;12556;55.748;13.194;2022-11-12T01:47:51;21.03;;;7.43;;
11771;SDS011;12556;55.748;13.194;2022-11-12T01:50:19;16.10;;;8.13;;
11771;SDS011;12556;55.748;13.194;2022-11-12T01:52:52;19.13;;;7.83;;
11771;SDS011;12556;55.748;13.194;2022-11-12T01:55:23;14.47;;;7.43;;
11771;SDS011;12556;55.748;13.194;2022-11-12T01:57:55;17.17;;;7.20;;
11771;SDS011;12556;55.748;13.194;2022-11-12T02:00:29;15.00;;;7.87;;
11771;SDS011;12556;55.748;13.194;2022-11-12T02:02:56;18.83;;;7.60;;
11771;SDS011;12556;55.748;13.194;2022-11-12T02:05:26;20.13;;;7.30;;
11771;SDS011;12556;55.748;13.194;2022-11-12T02:07:54;23.07;;;7.60;;
11771;SDS011;12556;55.748;13.194;2022-11-12T02:10:23;20.53;;;7.83;;
11771;SDS011;12556;55.748;13.194;2022-11-12T02:12:50;14.07;;;6.90;;
11771;SDS011;12556;55.748;13.194;2022-11-12T02:15:38;20.50;;;7.70;;
11771;SDS011;12556;55.748;13.194;2022-11-12T02:18:06;14.47;;;6.73;;
11771;SDS011;12556;55.748;13.194;2022-11-12T02:20:34;21.17;;;7.30;;
11771;SDS011;12556;55.748;13.194;2022-11-12T02:23:03;13.83;;;6.63;;
11771;SDS011;12556;55.748;13.194;2022-11-12T02:25:32;18.27;;;6.77;;
11771;SDS011;12556;55.748;13.194;2022-11-12T02:27:59;13.53;;;6.77;;
11771;SDS011;12556;55.748;13.194;2022-11-12T02:30:31;14.30;;;6.70;;
11771;SDS011;12556;55.748;13.194;2022-11-12T02:32:59;18.90;;;7.33;;
11771;SDS011;12556;55.748;13.194;2022-11-12T02:35:26;16.83;;;6.47;;
11771;SDS011;12556;55.748;13.194;2022-11-12T02:37:53;17.03;;;6.63;;
11771;SDS011;12556;55.748;13.194;2022-11-12T02:40:21;17.00;;;7.20;;
11771;SDS011;12556;55.748;13.194;2022-11-12T02:42:48;17.60;;;6.50;;
11771;SDS011;12556;55.748;13.194;2022-11-12T02:45:15;15.87;;;6.73;;
11771;SDS011;12556;55.748;13.194;2022-11-12T02:47:43;17.53;;;7.03;;
11771;SDS011;12556;55.748;13.194;2022-11-12T02:50:11;18.53;;;7.53;;
11771;SDS011;12556;55.748;13.194;2022-11-12T02:52:38;18.70;;;6.87;;
11771;SDS011;12556;55.748;13.194;2022-11-12T02:55:05;19.27;;;7.53;;
11771;SDS011;12556;55.748;13.194;2022-11-12T02:57:35;23.40;;;8.10;;
11771;SDS011;12556;55.748;13.194;2022-11-12T03:00:03;19.00;;;7.60;;
11771;SDS011;12556;55.748;13.194;2022-11-12T03:02:31;17.17;;;8.20;;
11771;SDS011;12556;55.748;13.194;2022-11-12T03:04:57;18.70;;;8.13;;
11771;SDS011;12556;55.748;13.194;2022-11-12T03:07:24;19.50;;;9.00;;
11771;SDS011;12556;55.748;13.194;2022-11-12T03:09:51;20.47;;;7.47;;
11771;SDS011;12556;55.748;13.194;2022-11-12T03:12:18;19.37;;;7.63;;
11771;SDS011;12556;55.748;13.194;2022-11-12T03:14:46;20.17;;;7.60;;
11771;SDS011;12556;55.748;13.194;2022-11-12T03:17:13;23.83;;;7.73;;
11771;SDS011;12556;55.748;13.194;2022-11-12T03:19:40;18.53;;;7.73;;
11771;SDS011;12556;55.748;13.194;2022-11-12T03:22:07;17.90;;;7.23;;
11771;SDS011;12556;55.748;13.194;2022-11-12T03:24:34;19.47;;;8.07;;
11771;SDS011;12556;55.748;13.194;2022-11-12T03:27:01;22.63;;;7.37;;
11771;SDS011;12556;55.748;13.194;2022-11-12T03:29:28;17.03;;;6.00;;
11771;SDS011;12556;55.748;13.194;2022-11-12T03:31:56;24.40;;;8.10;;
11771;SDS011;12556;55.748;13.194;2022-11-12T03:34:23;18.23;;;7.10;;
11771;SDS011;12556;55.748;13.194;2022-11-12T03:36:49;23.33;;;7.43;;
11771;SDS011;12556;55.748;13.194;2022-11-12T03:39:16;19.67;;;7.50;;
11771;SDS011;12556;55.748;13.194;2022-11-12T03:41:43;13.60;;;6.87;;
11771;SDS011;12556;55.748;13.194;2022-11-12T03:44:10;20.53;;;7.33;;
11771;SDS011;12556;55.748;13.194;2022-11-12T03:46:37;18.43;;;6.87;;
11771;SDS011;12556;55.748;13.194;2022-11-12T03:49:05;19.77;;;8.00;;
11771;SDS011;12556;55.748;13.194;2022-11-12T03:51:32;24.27;;;8.03;;
11771;SDS011;12556;55.748;13.194;2022-11-12T03:53:59;16.73;;;7.33;;
11771;SDS011;12556;55.748;13.194;2022-11-12T03:56:26;19.90;;;8.10;;
11771;SDS011;12556;55.748;13.194;2022-11-12T03:58:52;20.40;;;7.43;;
11771;SDS011;12556;55.748;13.194;2022-11-12T04:01:19;19.83;;;8.00;;
11771;SDS011;12556;55.748;13.194;2022-11-12T04:03:46;19.67;;;7.63;;
11771;SDS011;12556;55.748;13.194;2022-11-12T04:06:14;18.50;;;7.50;;
11771;SDS011;12556;55.748;13.194;2022-11-12T04:08:59;18.73;;;7.77;;
11771;SDS011;12556;55.748;13.194;2022-11-12T04:11:26;24.90;;;7.83;;
11771;SDS011;12556;55.748;13.194;2022-11-12T04:13:53;22.30;;;7.97;;
11771;SDS011;12556;55.748;13.194;2022-11-12T04:16:19;19.57;;;7.87;;
11771;SDS011;12556;55.748;13.194;2022-11-12T04:19:05;25.53;;;8.43;;
11771;SDS011;12556;55.748;13.194;2022-11-12T04:21:54;30.17;;;8.27;;
11771;SDS011;12556;55.748;13.194;2022-11-12T04:24:25;18.90;;;8.33;;
11771;SDS011;12556;55.748;13.194;2022-11-12T04:27:11;25.90;;;8.47;;
11771;SDS011;12556;55.748;13.194;2022-11-12T04:29:40;24.17;;;8.43;;
11771;SDS011;12556;55.748;13.194;2022-11-12T04:32:25;20.37;;;7.00;;
11771;SDS011;12556;55.748;13.194;2022-11-12T04:34:52;26.97;;;7.20;;
11771;SDS011;12556;55.748;13.194;2022-11-12T04:37:21;22.90;;;7.37;;
11771;SDS011;12556;55.748;13.194;2022-11-12T04:39:49;22.27;;;7.43;;
11771;SDS011;12556;55.748;13.194;2022-11-12T04:42:16;27.40;;;8.10;;
11771;SDS011;12556;55.748;13.194;2022-11-12T04:45:00;21.30;;;7.53;;
11771;SDS011;12556;55.748;13.194;2022-11-12T04:47:28;19.80;;;7.47;;
11771;SDS011;12556;55.748;13.194;2022-11-12T04:49:56;18.40;;;7.33;;
11771;SDS011;12556;55.748;13.194;2022-11-12T04:52:25;19.20;;;7.37;;
11771;SDS011;12556;55.748;13.194;2022-11-12T04:54:52;21.50;;;8.13;;
11771;SDS011;12556;55.748;13.194;2022-11-12T04:57:19;21.80;;;7.60;;
11771;SDS011;12556;55.748;13.194;2022-11-12T04:59:46;28.17;;;7.90;;
11771;SDS011;12556;55.748;13.194;2022-11-12T05:02:14;20.40;;;7.67;;
11771;SDS011;12556;55.748;13.194;2022-11-12T05:04:41;19.33;;;7.17;;
11771;SDS011;12556;55.748;13.194;2022-11-12T05:07:08;25.10;;;7.70;;
11771;SDS011;12556;55.748;13.194;2022-11-12T05:09:36;20.03;;;7.33;;
11771;SDS011;12556;55.748;13.194;2022-11-12T05:12:04;17.13;;;6.50;;
11771;SDS011;12556;55.748;13.194;2022-11-12T05:14:31;20.30;;;6.63;;
11771;SDS011;12556;55.748;13.194;2022-11-12T05:16:58;21.73;;;7.43;;
11771;SDS011;12556;55.748;13.194;2022-11-12T05:19:25;18.73;;;6.97;;
11771;SDS011;12556;55.748;13.194;2022-11-12T05:21:52;23.47;;;7.40;;
11771;SDS011;12556;55.748;13.194;2022-11-12T05:24:31;19.80;;;7.13;;
11771;SDS011;12556;55.748;13.194;2022-11-12T05:27:01;24.43;;;7.50;;
11771;SDS011;12556;55.748;13.194;2022-11-12T05:29:29;21.30;;;7.30;;
11771;SDS011;12556;55.748;13.194;2022-11-12T05:31:56;18.50;;;6.67;;
11771;SDS011;12556;55.748;13.194;2022-11-12T05:34:23;15.73;;;6.77;;
11771;SDS011;12556;55.748;13.194;2022-11-12T05:36:50;25.43;;;7.63;;
11771;SDS011;12556;55.748;13.194;2022-11-12T05:39:16;19.30;;;6.63;;
11771;SDS011;12556;55.748;13.194;2022-11-12T05:41:43;20.10;;;6.70;;
11771;SDS011;12556;55.748;13.194;2022-11-12T05:44:12;17.13;;;6.17;;
11771;SDS011;12556;55.748;13.194;2022-11-12T05:46:39;15.23;;;7.20;;
11771;SDS011;12556;55.748;13.194;2022-11-12T05:49:06;15.90;;;7.60;;
11771;SDS011;12556;55.748;13.194;2022-11-12T05:51:33;23.93;;;8.13;;
11771;SDS011;12556;55.748;13.194;2022-11-12T05:54:00;23.07;;;7.30;;
11771;SDS011;12556;55.748;13.194;2022-11-12T05:56:27;16.43;;;7.73;;
11771;SDS011;12556;55.748;13.194;2022-11-12T05:58:54;23.97;;;6.97;;
11771;SDS011;12556;55.748;13.194;2022-11-12T06:01:22;27.83;;;7.43;;
11771;SDS011;12556;55.748;13.194;2022-11-12T06:03:49;16.30;;;7.10;;
11771;SDS011;12556;55.748;13.194;2022-11-12T06:06:16;21.10;;;7.50;;
11771;SDS011;12556;55.748;13.194;2022-11-12T06:08:43;21.43;;;7.53;;
11771;SDS011;12556;55.748;13.194;2022-11-12T06:11:10;23.07;;;7.87;;
11771;SDS011;12556;55.748;13.194;2022-11-12T06:13:37;21.17;;;7.60;;
11771;SDS011;12556;55.748;13.194;2022-11-12T06:16:05;28.63;;;8.37;;
11771;SDS011;12556;55.748;13.194;2022-11-12T06:18:34;19.83;;;7.80;;
11771;SDS011;12556;55.748;13.194;2022-11-12T06:21:02;22.90;;;7.77;;
11771;SDS011;12556;55.748;13.194;2022-11-12T06:23:46;23.27;;;8.17;;
11771;SDS011;12556;55.748;13.194;2022-11-12T06:26:14;24.80;;;7.80;;
11771;SDS011;12556;55.748;13.194;2022-11-12T06:28:41;15.87;;;7.37;;
11771;SDS011;12556;55.748;13.194;2022-11-12T06:31:09;18.07;;;6.77;;
11771;SDS011;12556;55.748;13.194;2022-11-12T06:33:37;28.10;;;8.30;;
11771;SDS011;12556;55.748;13.194;2022-11-12T06:36:05;19.17;;;7.17;;
11771;SDS011;12556;55.748;13.194;2022-11-12T06:38:33;26.00;;;7.30;;
11771;SDS011;12556;55.748;13.194;2022-11-12T06:41:02;24.93;;;7.60;;
11771;SDS011;12556;55.748;13.194;2022-11-12T06:43:30;19.17;;;7.60;;
11771;SDS011;12556;55.748;13.194;2022-11-12T06:45:58;30.13;;;7.13;;
11771;SDS011;12556;55.748;13.194;2022-11-12T06:48:26;21.27;;;7.47;;
11771;SDS011;12556;55.748;13.194;2022-11-12T06:50:54;23.33;;;8.23;;
11771;SDS011;12556;55.748;13.194;2022-11-12T06:53:22;20.17;;;7.10;;
11771;SDS011;12556;55.748;13.194;2022-11-12T06:55:48;25.13;;;8.23;;
11771;SDS011;12556;55.748;13.194;2022-11-12T06:58:15;26.80;;;7.80;;
11771;SDS011;12556;55.748;13.194;2022-11-12T07:00:43;22.10;;;7.27;;
11771;SDS011;12556;55.748;13.194;2022-11-12T07:03:11;21.50;;;7.33;;
11771;SDS011;12556;55.748;13.194;2022-11-12T07:05:39;17.90;;;7.83;;
11771;SDS011;12556;55.748;13.194;2022-11-12T07:08:08;26.80;;;7.63;;
11771;SDS011;12556;55.748;13.194;2022-11-12T07:10:34;21.27;;;7.60;;
11771;SDS011;12556;55.748;13.194;2022-11-12T07:13:01;28.07;;;8.37;;
11771;SDS011;12556;55.748;13.194;2022-11-12T07:15:28;23.47;;;7.77;;
11771;SDS011;12556;55.748;13.194;2022-11-12T07:17:55;19.87;;;7.83;;
11771;SDS011;12556;55.748;13.194;2022-11-12T07:20:22;22.43;;;8.23;;
11771;SDS011;12556;55.748;13.194;2022-11-12T07:22:49;24.27;;;8.13;;
11771;SDS011;12556;55.748;13.194;2022-11-12T07:25:17;20.10;;;7.57;;
11771;SDS011;12556;55.748;13.194;2022-11-12T07:27:44;23.37;;;7.87;;
11771;SDS011;12556;55.748;13.194;2022-11-12T07:30:12;23.47;;;7.77;;
11771;SDS011;12556;55.748;13.194;2022-11-12T07:32:39;20.50;;;8.33;;
11771;SDS011;12556;55.748;13.194;2022-11-12T07:35:06;27.00;;;8.53;;
11771;SDS011;12556;55.748;13.194;2022-11-12T07:37:33;25.93;;;7.63;;
11771;SDS011;12556;55.748;13.194;2022-11-12T07:40:01;17.10;;;7.10;;
11771;SDS011;12556;55.748;13.194;2022-11-12T07:42:32;22.27;;;7.17;;
11771;SDS011;12556;55.748;13.194;2022-11-12T07:44:59;22.13;;;8.60;;
11771;SDS011;12556;55.748;13.194;2022-11-12T07:47:26;23.43;;;8.00;;
11771;SDS011;12556;55.748;13.194;2022-11-12T07:49:53;28.47;;;8.37;;
11771;SDS011;12556;55.748;13.194;2022-11-12T07:52:20;24.53;;;7.63;;
11771;SDS011;12556;55.748;13.194;2022-11-12T07:54:47;22.40;;;7.87;;
11771;SDS011;12556;55.748;13.194;2022-11-12T07:57:14;24.40;;;8.80;;
11771;SDS011;12556;55.748;13.194;2022-11-12T07:59:42;20.97;;;7.73;;
11771;SDS011;12556;55.748;13.194;2022-11-12T08:02:10;24.20;;;8.33;;
11771;SDS011;12556;55.748;13.194;2022-11-12T08:04:36;19.73;;;7.23;;
11771;SDS011;12556;55.748;13.194;2022-11-12T08:07:03;20.07;;;7.47;;
11771;SDS011;12556;55.748;13.194;2022-11-12T08:09:30;20.67;;;7.33;;
11771;SDS011;12556;55.748;13.194;2022-11-12T08:11:57;18.60;;;7.67;;
11771;SDS011;12556;55.748;13.194;2022-11-12T08:14:24;21.47;;;7.20;;
11771;SDS011;12556;55.748;13.194;2022-11-12T08:16:52;17.70;;;7.83;;
11771;SDS011;12556;55.748;13.194;2022-11-12T08:19:19;26.47;;;7.73;;
11771;SDS011;12556;55.748;13.194;2022-11-12T08:21:46;24.47;;;7.27;;
11771;SDS011;12556;55.748;13.194;2022-11-12T08:24:13;24.90;;;7.57;;
11771;SDS011;12556;55.748;13.194;2022-11-12T08:26:40;21.17;;;7.27;;
11771;SDS011;12556;55.748;13.194;2022-11-12T08:29:07;19.40;;;7.23;;
11771;SDS011;12556;55.748;13.194;2022-11-12T08:31:33;19.63;;;7.17;;
11771;SDS011;12556;55.748;13.194;2022-11-12T08:34:02;18.90;;;7.47;;
11771;SDS011;12556;55.748;13.194;2022-11-12T08:36:36;26.93;;;8.33;;
11771;SDS011;12556;55.748;13.194;2022-11-12T08:39:04;22.53;;;7.13;;
11771;SDS011;12556;55.748;13.194;2022-11-12T08:41:31;17.23;;;7.07;;
11771;SDS011;12556;55.748;13.194;2022-11-12T08:43:58;25.63;;;7.60;;
11771;SDS011;12556;55.748;13.194;2022-11-12T08:46:25;21.20;;;8.07;;
11771;SDS011;12556;55.748;13.194;2022-11-12T08:48:52;19.40;;;7.67;;
11771;SDS011;12556;55.748;13.194;2022-11-12T08:51:20;21.63;;;7.73;;
11771;SDS011;12556;55.748;13.194;2022-11-12T08:53:47;22.60;;;7.47;;
11771;SDS011;12556;55.748;13.194;2022-11-12T08:56:14;23.87;;;8.63;;
11771;SDS011;12556;55.748;13.194;2022-11-12T08:58:41;23.50;;;8.83;;
11771;SDS011;12556;55.748;13.194;2022-11-12T09:01:07;28.40;;;8.40;;
11771;SDS011;12556;55.748;13.194;2022-11-12T09:03:35;24.37;;;8.17;;
11771;SDS011;12556;55.748;13.194;2022-11-12T09:06:02;25.67;;;8.57;;
11771;SDS011;12556;55.748;13.194;2022-11-12T09:08:32;27.30;;;9.20;;
11771;SDS011;12556;55.748;13.194;2022-11-12T09:11:01;26.57;;;9.23;;
11771;SDS011;12556;55.748;13.194;2022-11-12T09:13:28;21.43;;;9.30;;
11771;SDS011;12556;55.748;13.194;2022-11-12T09:15:58;25.23;;;8.57;;
11771;SDS011;12556;55.748;13.194;2022-11-12T09:18:26;22.10;;;9.50;;
11771;SDS011;12556;55.748;13.194;2022-11-12T09:20:57;31.53;;;10.03;;
11771;SDS011;12556;55.748;13.194;2022-11-12T09:23:25;23.53;;;9.70;;
11771;SDS011;12556;55.748;13.194;2022-11-12T09:25:54;25.07;;;9.77;;
11771;SDS011;12556;55.748;13.194;2022-11-12T09:28:22;22.33;;;9.50;;
11771;SDS011;12556;55.748;13.194;2022-11-12T09:30:49;25.47;;;10.47;;
11771;SDS011;12556;55.748;13.194;2022-11-12T09:33:18;29.77;;;10.27;;
11771;SDS011;12556;55.748;13.194;2022-11-12T09:35:46;26.53;;;9.63;;
11771;SDS011;12556;55.748;13.194;2022-11-12T09:38:13;25.90;;;11.20;;
11771;SDS011;12556;55.748;13.194;2022-11-12T09:40:44;26.77;;;10.30;;
11771;SDS011;12556;55.748;13.194;2022-11-12T09:43:38;31.83;;;11.07;;
11771;SDS011;12556;55.748;13.194;2022-11-12T09:46:13;26.83;;;10.17;;
11771;SDS011;12556;55.748;13.194;2022-11-12T09:48:52;30.00;;;10.67;;
11771;SDS011;12556;55.748;13.194;2022-11-12T09:51:26;27.97;;;10.73;;
11771;SDS011;12556;55.748;13.194;2022-11-12T09:53:55;20.40;;;8.70;;
11771;SDS011;12556;55.748;13.194;2022-11-12T09:56:24;30.17;;;10.10;;
11771;SDS011;12556;55.748;13.194;2022-11-12T09:58:53;27.37;;;10.03;;
11771;SDS011;12556;55.748;13.194;2022-11-12T10:01:22;30.33;;;10.03;;
11771;SDS011;12556;55.748;13.194;2022-11-12T10:03:57;22.50;;;9.30;;
11771;SDS011;12556;55.748;13.194;2022-11-12T10:06:33;24.60;;;8.83;;
11771;SDS011;12556;55.748;13.194;2022-11-12T10:09:03;29.40;;;8.73;;
11771;SDS011;12556;55.748;13.194;2022-11-12T10:11:48;23.73;;;8.73;;
11771;SDS011;12556;55.748;13.194;2022-11-12T10:14:57;23.50;;;9.03;;
11771;SDS011;12556;55.748;13.194;2022-11-12T10:17:48;24.00;;;10.03;;
11771;SDS011;12556;55.748;13.194;2022-11-12T10:20:18;30.13;;;9.80;;
11771;SDS011;12556;55.748;13.194;2022-11-12T10:22:57;28.63;;;10.33;;
11771;SDS011;12556;55.748;13.194;2022-11-12T10:25:34;23.87;;;10.30;;
11771;SDS011;12556;55.748;13.194;2022-11-12T10:28:06;24.87;;;10.20;;
11771;SDS011;12556;55.748;13.194;2022-11-12T10:30:43;31.80;;;10.97;;
11771;SDS011;12556;55.748;13.194;2022-11-12T10:33:12;29.83;;;12.13;;
11771;SDS011;12556;55.748;13.194;2022-11-12T10:35:40;18.73;;;9.67;;
11771;SDS011;12556;55.748;13.194;2022-11-12T10:38:10;24.70;;;11.73;;
11771;SDS011;12556;55.748;13.194;2022-11-12T10:40:41;25.67;;;11.20;;
11771;SDS011;12556;55.748;13.194;2022-11-12T10:43:19;27.00;;;10.70;;
11771;SDS011;12556;55.748;13.194;2022-11-12T10:45:48;40.90;;;11.27;;
11771;SDS011;12556;55.748;13.194;2022-11-12T10:48:23;28.17;;;11.23;;
11771;SDS011;12556;55.748;13.194;2022-11-12T10:50:57;24.50;;;11.13;;
11771;SDS011;12556;55.748;13.194;2022-11-12T10:53:29;31.83;;;11.23;;
11771;SDS011;12556;55.748;13.194;2022-11-12T10:55:58;28.20;;;11.77;;
11771;SDS011;12556;55.748;13.194;2022-11-12T10:58:26;26.53;;;10.73;;
11771;SDS011;12556;55.748;13.194;2022-11-12T11:00:56;21.80;;;11.07;;
11771;SDS011;12556;55.748;13.194;2022-11-12T11:03:26;28.97;;;10.73;;
11771;SDS011;12556;55.748;13.194;2022-11-12T11:05:56;27.77;;;11.03;;
11771;SDS011;12556;55.748;13.194;2022-11-12T11:08:32;23.23;;;10.20;;
11771;SDS011;12556;55.748;13.194;2022-11-12T11:13:53;28.53;;;10.93;;
11771;SDS011;12556;55.748;13.194;2022-11-12T11:16:22;29.73;;;10.70;;
11771;SDS011;12556;55.748;13.194;2022-11-12T11:18:51;24.33;;;10.80;;
11771;SDS011;12556;55.748;13.194;2022-11-12T11:21:44;26.83;;;10.97;;
11771;SDS011;12556;55.748;13.194;2022-11-12T11:24:31;27.43;;;11.43;;
11771;SDS011;12556;55.748;13.194;2022-11-12T11:27:03;27.87;;;11.33;;
11771;SDS011;12556;55.748;13.194;2022-11-12T11:29:38;29.37;;;11.27;;
11771;SDS011;12556;55.748;13.194;2022-11-12T11:32:18;33.30;;;11.43;;
11771;SDS011;12556;55.748;13.194;2022-11-12T11:34:56;32.73;;;13.10;;
11771;SDS011;12556;55.748;13.194;2022-11-12T11:37:36;26.33;;;12.57;;
11771;SDS011;12556;55.748;13.194;2022-11-12T11:40:14;28.10;;;12.70;;
11771;SDS011;12556;55.748;13.194;2022-11-12T11:42:53;31.13;;;11.83;;
11771;SDS011;12556;55.748;13.194;2022-11-12T11:45:48;35.17;;;12.63;;
11771;SDS011;12556;55.748;13.194;2022-11-12T11:48:30;18.53;;;10.87;;
11771;SDS011;12556;55.748;13.194;2022-11-12T11:51:06;23.80;;;11.53;;
11771;SDS011;12556;55.748;13.194;2022-11-12T11:53:46;32.87;;;11.80;;
11771;SDS011;12556;55.748;13.194;2022-11-12T11:56:22;26.47;;;11.77;;
11771;SDS011;12556;55.748;13.194;2022-11-12T11:58:56;26.23;;;11.00;;
11771;SDS011;12556;55.748;13.194;2022-11-12T12:01:42;26.07;;;11.43;;
11771;SDS011;12556;55.748;13.194;2022-11-12T12:04:43;27.10;;;11.80;;
11771;SDS011;12556;55.748;13.194;2022-11-12T12:07:20;28.93;;;11.03;;
11771;SDS011;12556;55.748;13.194;2022-11-12T12:09:56;30.30;;;11.87;;
11771;SDS011;12556;55.748;13.194;2022-11-12T12:12:36;30.20;;;11.37;;
11771;SDS011;12556;55.748;13.194;2022-11-12T12:15:24;25.17;;;11.03;;
11771;SDS011;12556;55.748;13.194;2022-11-12T12:18:13;30.40;;;11.37;;
11771;SDS011;12556;55.748;13.194;2022-11-12T12:20:53;24.03;;;11.53;;
11771;SDS011;12556;55.748;13.194;2022-11-12T12:23:25;27.53;;;10.77;;
11771;SDS011;12556;55.748;13.194;2022-11-12T12:25:57;25.13;;;10.97;;
11771;SDS011;12556;55.748;13.194;2022-11-12T12:28:28;31.43;;;10.97;;
11771;SDS011;12556;55.748;13.194;2022-11-12T12:31:03;25.17;;;10.27;;
11771;SDS011;12556;55.748;13.194;2022-11-12T12:33:38;25.67;;;10.87;;
11771;SDS011;12556;55.748;13.194;2022-11-12T12:36:14;30.30;;;11.80;;
11771;SDS011;12556;55.748;13.194;2022-11-12T12:38:44;32.97;;;12.03;;
11771;SDS011;12556;55.748;13.194;2022-11-12T12:41:15;27.40;;;12.27;;
11771;SDS011;12556;55.748;13.194;2022-11-12T12:43:52;26.83;;;10.93;;
11771;SDS011;12556;55.748;13.194;2022-11-12T12:46:22;26.63;;;11.00;;
11771;SDS011;12556;55.748;13.194;2022-11-12T12:48:52;26.60;;;10.87;;
11771;SDS011;12556;55.748;13.194;2022-11-12T12:51:21;29.10;;;11.37;;
11771;SDS011;12556;55.748;13.194;2022-11-12T12:53:49;31.83;;;12.13;;
11771;SDS011;12556;55.748;13.194;2022-11-12T12:59:17;35.63;;;11.10;;
11771;SDS011;12556;55.748;13.194;2022-11-12T13:01:50;35.87;;;11.00;;
11771;SDS011;12556;55.748;13.194;2022-11-12T13:07:38;26.50;;;9.50;;
11771;SDS011;12556;55.748;13.194;2022-11-12T13:13:22;26.27;;;10.47;;
11771;SDS011;12556;55.748;13.194;2022-11-12T13:15:52;24.27;;;9.70;;
11771;SDS011;12556;55.748;13.194;2022-11-12T13:21:22;24.23;;;9.33;;
11771;SDS011;12556;55.748;13.194;2022-11-12T13:23:50;24.23;;;10.40;;
11771;SDS011;12556;55.748;13.194;2022-11-12T13:26:42;31.37;;;10.50;;
11771;SDS011;12556;55.748;13.194;2022-11-12T13:35:18;21.33;;;8.87;;
11771;SDS011;12556;55.748;13.194;2022-11-12T13:37:50;27.30;;;9.73;;
11771;SDS011;12556;55.748;13.194;2022-11-12T13:40:23;25.60;;;9.37;;
11771;SDS011;12556;55.748;13.194;2022-11-12T13:43:02;29.33;;;10.37;;
11771;SDS011;12556;55.748;13.194;2022-11-12T13:45:33;28.80;;;11.00;;
11771;SDS011;12556;55.748;13.194;2022-11-12T13:48:06;18.23;;;9.90;;
11771;SDS011;12556;55.748;13.194;2022-11-12T13:50:37;31.17;;;11.00;;
11771;SDS011;12556;55.748;13.194;2022-11-12T13:53:05;32.27;;;11.27;;
11771;SDS011;12556;55.748;13.194;2022-11-12T13:55:35;27.63;;;10.93;;
11771;SDS011;12556;55.748;13.194;2022-11-12T13:58:02;30.73;;;11.67;;
11771;SDS011;12556;55.748;13.194;2022-11-12T14:00:29;34.23;;;11.83;;
11771;SDS011;12556;55.748;13.194;2022-11-12T14:02:57;28.97;;;11.17;;
11771;SDS011;12556;55.748;13.194;2022-11-12T14:05:29;28.47;;;12.13;;
11771;SDS011;12556;55.748;13.194;2022-11-12T14:08:02;31.87;;;11.93;;
11771;SDS011;12556;55.748;13.194;2022-11-12T14:11:12;36.83;;;12.63;;
11771;SDS011;12556;55.748;13.194;2022-11-12T14:14:03;35.37;;;12.77;;
11771;SDS011;12556;55.748;13.194;2022-11-12T14:16:38;32.83;;;15.27;;
11771;SDS011;12556;55.748;13.194;2022-11-12T14:19:19;36.03;;;14.90;;
11771;SDS011;12556;55.748;13.194;2022-11-12T14:21:57;29.13;;;12.27;;
11771;SDS011;12556;55.748;13.194;2022-11-12T14:24:25;33.30;;;12.40;;
11771;SDS011;12556;55.748;13.194;2022-11-12T14:26:54;26.33;;;12.07;;
11771;SDS011;12556;55.748;13.194;2022-11-12T14:29:21;34.90;;;12.97;;
11771;SDS011;12556;55.748;13.194;2022-11-12T14:31:48;28.87;;;12.43;;
11771;SDS011;12556;55.748;13.194;2022-11-12T14:34:27;28.20;;;11.87;;
11771;SDS011;12556;55.748;13.194;2022-11-12T14:36:55;33.53;;;12.17;;
11771;SDS011;12556;55.748;13.194;2022-11-12T14:39:22;31.53;;;12.43;;
11771;SDS011;12556;55.748;13.194;2022-11-12T14:41:51;30.23;;;11.10;;
11771;SDS011;12556;55.748;13.194;2022-11-12T14:44:21;37.83;;;13.10;;
11771;SDS011;12556;55.748;13.194;2022-11-12T14:46:54;29.83;;;12.27;;
11771;SDS011;12556;55.748;13.194;2022-11-12T14:49:26;34.90;;;12.53;;
11771;SDS011;12556;55.748;13.194;2022-11-12T14:52:04;31.10;;;12.97;;
11771;SDS011;12556;55.748;13.194;2022-11-12T14:54:39;33.70;;;12.50;;
11771;SDS011;12556;55.748;13.194;2022-11-12T14:57:08;32.10;;;12.63;;
11771;SDS011;12556;55.748;13.194;2022-11-12T14:59:45;28.33;;;11.53;;